Time;durP1;ratioP1;P1;durP2;ratioP2;P2;SDS_P1;SDS_P2;PMS_P1;PMS_P2;Temp;Humidity;BMP_temperature;BMP_pressure;BME280_temperature;BME280_humidity;BME280_pressure;Samples;Min_cycle;Max_cycle;Signal;HPM_P1;HPM_P2
2023/12/26 00:01:11;;;;;;;7.35;1.33;;;11.40;99.90;;;;;;5033648;28;20032;-53
2023/12/26 00:03:37;;;;;;;1.58;0.70;;;11.40;99.90;;;;;;5032933;28;20025;-49
2023/12/26 00:06:02;;;;;;;4.68;0.80;;;11.40;99.90;;;;;;5034674;28;20024;-51
2023/12/26 00:08:28;;;;;;;3.90;1.38;;;11.40;99.90;;;;;;5034728;28;20033;-52
2023/12/26 00:10:54;;;;;;;9.30;0.98;;;11.30;99.90;;;;;;5033662;28;20037;-51
2023/12/26 00:13:19;;;;;;;8.52;0.85;;;11.30;99.90;;;;;;5034454;28;20045;-49
2023/12/26 00:15:45;;;;;;;7.00;0.95;;;11.40;99.90;;;;;;5034256;28;20115;-49
2023/12/26 00:18:10;;;;;;;6.60;0.80;;;11.30;99.90;;;;;;5033653;28;20034;-51
2023/12/26 00:20:40;;;;;;;0.98;0.82;;;11.30;99.90;;;;;;5034371;28;20044;-52
2023/12/26 00:23:05;;;;;;;2.40;0.63;;;11.30;99.90;;;;;;5034926;28;20488;-51
2023/12/26 00:25:31;;;;;;;3.95;0.70;;;11.30;99.90;;;;;;5034554;28;20104;-51
2023/12/26 00:27:57;;;;;;;10.93;1.52;;;11.30;99.90;;;;;;5034453;28;20493;-47
2023/12/26 00:30:22;;;;;;;3.30;0.88;;;11.20;99.90;;;;;;5033179;28;20021;-53
2023/12/26 00:32:48;;;;;;;1.92;0.60;;;11.30;99.90;;;;;;5034549;28;20017;-52
2023/12/26 00:35:14;;;;;;;1.98;0.50;;;11.30;99.90;;;;;;5033956;28;20029;-51
2023/12/26 00:37:40;;;;;;;2.25;0.70;;;11.40;99.90;;;;;;5034348;28;20065;-52
2023/12/26 00:40:06;;;;;;;4.35;0.63;;;11.40;99.90;;;;;;5034400;28;20036;-55
2023/12/26 00:42:32;;;;;;;2.38;0.50;;;11.40;99.90;;;;;;5034088;28;20378;-51
2023/12/26 00:44:58;;;;;;;4.95;0.70;;;11.30;99.90;;;;;;5034389;28;20025;-51
2023/12/26 00:47:24;;;;;;;1.23;0.73;;;11.30;99.90;;;;;;5034075;28;20021;-51
2023/12/26 00:49:49;;;;;;;1.95;0.77;;;11.30;99.90;;;;;;5034161;28;20518;-49
2023/12/26 00:52:15;;;;;;;6.35;1.08;;;11.30;99.90;;;;;;5032514;28;20395;-49
2023/12/26 00:54:41;;;;;;;2.55;0.80;;;11.30;99.90;;;;;;5031324;28;20017;-49
2023/12/26 00:57:07;;;;;;;7.82;1.05;;;11.30;99.90;;;;;;5014991;28;20058;-51
2023/12/26 00:59:33;;;;;;;2.72;0.82;;;11.30;99.90;;;;;;5019226;28;20033;-48
2023/12/26 01:02:01;;;;;;;5.95;0.63;;;11.30;99.90;;;;;;5032038;28;20017;-49
2023/12/26 01:04:28;;;;;;;3.20;0.68;;;11.30;99.90;;;;;;5029432;28;20033;-50
2023/12/26 01:06:54;;;;;;;2.80;0.73;;;11.30;99.90;;;;;;5033523;28;20021;-50
2023/12/26 01:09:19;;;;;;;8.18;1.42;;;11.20;99.90;;;;;;5033411;28;20052;-51
2023/12/26 01:11:45;;;;;;;8.88;1.45;;;11.20;99.90;;;;;;5030744;28;20040;-51
2023/12/26 01:14:11;;;;;;;3.67;1.35;;;11.20;99.90;;;;;;5033576;28;20049;-47
2023/12/26 01:16:37;;;;;;;6.47;1.02;;;11.20;99.90;;;;;;5032700;28;20105;-49
2023/12/26 01:19:03;;;;;;;10.95;1.67;;;11.20;99.90;;;;;;5028172;28;20120;-47
2023/12/26 01:21:28;;;;;;;15.70;1.85;;;11.20;99.90;;;;;;5033764;28;20031;-52
2023/12/26 01:23:55;;;;;;;12.45;1.48;;;11.20;99.90;;;;;;5032134;28;20406;-51
2023/12/26 01:26:23;;;;;;;6.30;2.22;;;11.20;99.90;;;;;;5033667;28;20423;-52
2023/12/26 01:28:48;;;;;;;;;;;11.10;99.90;;;;;;5033539;28;20497;-52
2023/12/26 01:31:14;;;;;;;11.50;1.35;;;11.10;99.90;;;;;;5029402;28;19909;-48
2023/12/26 01:33:40;;;;;;;8.15;1.83;;;11.20;99.90;;;;;;5014037;28;20108;-51
2023/12/26 01:36:06;;;;;;;14.07;2.05;;;11.20;99.90;;;;;;5024484;28;20474;-51
2023/12/26 01:38:31;;;;;;;13.15;1.88;;;11.30;99.90;;;;;;5033143;28;20459;-56
2023/12/26 01:40:57;;;;;;;7.68;1.25;;;11.20;99.90;;;;;;5033558;28;20108;-52
2023/12/26 01:43:23;;;;;;;8.77;1.42;;;11.20;99.90;;;;;;5033583;28;20018;-51
2023/12/26 01:45:55;;;;;;;7.45;1.23;;;11.20;99.90;;;;;;5033431;28;20083;-53
2023/12/26 01:48:21;;;;;;;3.92;1.70;;;11.20;99.90;;;;;;5033415;28;20478;-48
2023/12/26 01:50:46;;;;;;;6.30;1.15;;;11.20;99.90;;;;;;5033508;28;20029;-49
2023/12/26 01:53:14;;;;;;;7.13;1.17;;;11.20;99.90;;;;;;5033521;28;20033;-49
2023/12/26 01:55:41;;;;;;;8.95;1.23;;;11.10;99.90;;;;;;5032105;28;20482;-50
2023/12/26 01:58:07;;;;;;;7.25;1.00;;;11.10;99.90;;;;;;5032409;28;20377;-52
2023/12/26 02:00:33;;;;;;;7.95;1.55;;;11.10;99.90;;;;;;5033332;28;20496;-49
2023/12/26 02:02:59;;;;;;;11.13;1.20;;;11.10;99.90;;;;;;5031992;28;20017;-51
2023/12/26 02:05:24;;;;;;;7.88;1.48;;;11.10;99.90;;;;;;5032271;28;20434;-49
2023/12/26 02:07:50;;;;;;;5.53;1.33;;;11.10;99.90;;;;;;5032310;28;20017;-50
2023/12/26 02:10:16;;;;;;;7.30;1.27;;;11.10;99.90;;;;;;5032711;28;20370;-51
2023/12/26 02:12:43;;;;;;;4.65;0.70;;;11.00;99.90;;;;;;5032133;28;20064;-49
2023/12/26 02:15:09;;;;;;;6.53;0.50;;;10.70;99.90;;;;;;5032569;28;20518;-51
2023/12/26 02:17:35;;;;;;;3.20;0.47;;;10.50;99.90;;;;;;5032167;28;20361;-51
2023/12/26 02:20:00;;;;;;;3.30;0.68;;;10.40;99.90;;;;;;5032503;28;20018;-50
2023/12/26 02:22:27;;;;;;;3.72;0.40;;;10.30;99.90;;;;;;5031707;28;20014;-51
2023/12/26 02:24:52;;;;;;;5.82;0.55;;;10.30;99.90;;;;;;5032879;28;20076;-50
2023/12/26 02:27:23;;;;;;;5.72;0.95;;;10.30;99.90;;;;;;5032655;28;20017;-51
2023/12/26 02:29:52;;;;;;;9.05;2.28;;;10.40;99.90;;;;;;5050707;28;20017;-52
2023/12/26 02:32:19;;;;;;;3.42;0.85;;;10.50;99.90;;;;;;5034073;28;20536;-51
2023/12/26 02:34:50;;;;;;;4.22;0.77;;;10.60;99.90;;;;;;5032695;28;20018;-51
2023/12/26 02:37:16;;;;;;;8.07;1.20;;;10.70;99.90;;;;;;5032033;28;20029;-50
2023/12/26 02:39:43;;;;;;;7.47;1.92;;;10.80;99.90;;;;;;5016016;28;20509;-53
2023/12/26 02:42:11;;;;;;;7.47;1.23;;;10.80;99.90;;;;;;5013068;28;20018;-52
2023/12/26 02:44:38;;;;;;;10.65;0.93;;;10.80;99.90;;;;;;5014616;28;20271;-48
2023/12/26 02:47:03;;;;;;;3.28;0.90;;;10.90;99.90;;;;;;5032262;28;20063;-50
2023/12/26 02:49:29;;;;;;;2.70;0.70;;;10.80;99.90;;;;;;5031266;28;20486;-51
2023/12/26 02:51:55;;;;;;;5.63;0.98;;;10.90;99.90;;;;;;5030487;28;20026;-50
2023/12/26 02:54:20;;;;;;;3.53;0.50;;;10.80;99.90;;;;;;5030701;28;20074;-51
2023/12/26 02:56:46;;;;;;;11.57;1.10;;;10.80;99.90;;;;;;5031264;28;20114;-49
2023/12/26 02:59:12;;;;;;;1.70;0.80;;;10.80;99.90;;;;;;5032425;28;20022;-51
2023/12/26 03:01:37;;;;;;;6.45;0.88;;;10.70;99.90;;;;;;5031418;28;20021;-48
2023/12/26 03:04:03;;;;;;;3.85;1.88;;;10.70;99.90;;;;;;5031501;28;20049;-50
2023/12/26 03:06:29;;;;;;;4.72;0.63;;;10.70;99.90;;;;;;5032041;28;20064;-49
2023/12/26 03:08:55;;;;;;;3.63;0.90;;;10.70;99.90;;;;;;5032206;28;20030;-48
2023/12/26 03:11:20;;;;;;;4.63;0.65;;;10.70;99.90;;;;;;5032193;28;20101;-51
2023/12/26 03:13:46;;;;;;;0.50;0.40;;;10.60;99.90;;;;;;5032347;28;20030;-51
2023/12/26 03:16:12;;;;;;;7.55;0.70;;;10.60;99.90;;;;;;5031759;28;20557;-47
2023/12/26 03:18:37;;;;;;;2.63;0.60;;;10.70;99.90;;;;;;5032359;28;20021;-52
2023/12/26 03:21:03;;;;;;;9.00;1.65;;;10.60;99.90;;;;;;5026505;28;20037;-44
2023/12/26 03:23:29;;;;;;;7.60;1.73;;;10.70;99.90;;;;;;5030862;28;20507;-51
2023/12/26 03:25:54;;;;;;;2.67;0.90;;;10.60;99.90;;;;;;5031382;28;20033;-50
2023/12/26 03:28:20;;;;;;;2.38;0.85;;;10.60;99.90;;;;;;5032410;28;20413;-49
2023/12/26 03:30:46;;;;;;;7.57;1.23;;;10.60;99.90;;;;;;5031257;28;20029;-50
2023/12/26 03:33:12;;;;;;;5.78;0.80;;;10.50;99.90;;;;;;5025478;28;20049;-50
2023/12/26 03:35:37;;;;;;;3.88;1.25;;;10.40;99.90;;;;;;5030001;28;20037;-47
2023/12/26 03:38:03;;;;;;;4.07;0.70;;;10.30;99.90;;;;;;5032969;28;20030;-45
2023/12/26 03:40:29;;;;;;;4.57;0.80;;;10.30;99.90;;;;;;5032437;28;20083;-45
2023/12/26 03:42:55;;;;;;;7.05;0.80;;;10.20;99.90;;;;;;5035450;28;20024;-50
2023/12/26 03:45:21;;;;;;;4.75;0.57;;;10.10;99.90;;;;;;5031363;28;20568;-48
2023/12/26 03:47:47;;;;;;;10.85;0.98;;;10.10;99.90;;;;;;5035200;28;20053;-49
2023/12/26 03:50:13;;;;;;;8.98;1.27;;;10.00;99.90;;;;;;5035444;28;20029;-49
2023/12/26 03:52:40;;;;;;;4.18;0.50;;;10.00;99.90;;;;;;5035384;28;20030;-48
2023/12/26 03:55:06;;;;;;;3.73;0.63;;;9.90;99.90;;;;;;5035656;28;20033;-47
2023/12/26 03:57:32;;;;;;;1.48;0.50;;;9.90;99.90;;;;;;5034862;28;20026;-47
2023/12/26 03:59:58;;;;;;;5.20;0.55;;;9.80;99.90;;;;;;5033992;28;20359;-37
2023/12/26 04:02:23;;;;;;;13.93;1.10;;;9.80;99.90;;;;;;5064022;28;20398;-48
2023/12/26 04:04:49;;;;;;;2.67;0.55;;;9.70;99.90;;;;;;5033212;28;20017;-35
2023/12/26 04:07:15;;;;;;;4.78;0.47;;;9.70;99.90;;;;;;5033828;28;20105;-36
2023/12/26 04:09:41;;;;;;;5.75;0.88;;;9.70;99.90;;;;;;5035167;28;20087;-35
2023/12/26 04:12:08;;;;;;;6.80;0.68;;;9.70;99.90;;;;;;5033882;28;20026;-36
2023/12/26 04:14:34;;;;;;;7.10;0.57;;;9.60;99.90;;;;;;5020597;28;20088;-41
2023/12/26 04:16:59;;;;;;;3.75;1.42;;;9.60;99.90;;;;;;5034760;28;20029;-36
2023/12/26 04:19:25;;;;;;;4.13;0.60;;;9.60;99.90;;;;;;5034296;28;20064;-36
2023/12/26 04:21:51;;;;;;;3.15;0.65;;;9.60;99.90;;;;;;5028757;28;20029;-35
2023/12/26 04:24:16;;;;;;;8.07;0.73;;;9.60;99.90;;;;;;5034605;28;20026;-36
2023/12/26 04:26:42;;;;;;;8.18;0.77;;;9.60;99.90;;;;;;5033056;28;20174;-36
2023/12/26 04:29:08;;;;;;;10.80;0.80;;;9.60;99.90;;;;;;5034377;28;20148;-36
2023/12/26 04:31:33;;;;;;;10.85;0.95;;;9.60;99.90;;;;;;5032728;28;20037;-49
2023/12/26 04:33:59;;;;;;;3.88;0.63;;;9.60;99.90;;;;;;5033715;28;20386;-47
2023/12/26 04:36:25;;;;;;;4.57;0.60;;;9.60;99.90;;;;;;5034137;28;20402;-47
2023/12/26 04:38:50;;;;;;;5.50;0.50;;;9.50;99.90;;;;;;5034084;28;20032;-49
2023/12/26 04:41:16;;;;;;;7.25;0.75;;;9.50;99.90;;;;;;5034436;28;20014;-48
2023/12/26 04:43:42;;;;;;;5.50;0.90;;;9.50;99.90;;;;;;5033777;28;20096;-46
2023/12/26 04:46:16;;;;;;;3.67;0.70;;;9.50;99.90;;;;;;5026513;28;20121;-48
2023/12/26 04:48:42;;;;;;;6.05;0.77;;;9.50;99.90;;;;;;5026764;28;20080;-48
2023/12/26 04:51:07;;;;;;;4.82;0.95;;;9.40;99.90;;;;;;5033933;28;20373;-53
2023/12/26 04:53:33;;;;;;;11.07;1.40;;;9.40;99.90;;;;;;5034259;28;20037;-47
2023/12/26 04:55:59;;;;;;;4.93;1.80;;;9.40;99.90;;;;;;5033371;28;20029;-51
2023/12/26 04:58:24;;;;;;;9.38;0.70;;;9.30;99.90;;;;;;5034484;28;20429;-52
2023/12/26 05:00:50;;;;;;;12.63;0.93;;;9.40;99.90;;;;;;5027524;28;20437;-48
2023/12/26 05:03:15;;;;;;;7.43;1.27;;;9.30;99.90;;;;;;5034077;28;20009;-52
2023/12/26 05:05:41;;;;;;;3.47;0.57;;;9.30;99.90;;;;;;5033592;28;20068;-49
2023/12/26 05:08:07;;;;;;;8.50;1.10;;;9.20;99.90;;;;;;5017906;28;20068;-41
2023/12/26 05:10:33;;;;;;;8.55;0.80;;;9.20;99.90;;;;;;5033079;28;20044;-38
2023/12/26 05:12:59;;;;;;;5.68;0.98;;;9.10;99.90;;;;;;5020245;28;20037;-38
2023/12/26 05:15:24;;;;;;;9.52;0.90;;;9.10;99.90;;;;;;5033633;28;20041;-37
2023/12/26 05:17:50;;;;;;;5.32;0.75;;;9.00;99.90;;;;;;5033181;28;20021;-37
2023/12/26 05:20:16;;;;;;;4.47;1.27;;;9.00;99.90;;;;;;5031843;28;20025;-39
2023/12/26 05:22:44;;;;;;;12.30;0.90;;;9.00;99.90;;;;;;5044948;28;20049;-38
2023/12/26 05:25:10;;;;;;;6.47;2.17;;;8.90;99.90;;;;;;5032089;28;20028;-37
2023/12/26 05:27:36;;;;;;;12.25;1.30;;;8.90;99.90;;;;;;5033656;28;20036;-37
2023/12/26 05:30:02;;;;;;;8.00;1.17;;;8.90;99.90;;;;;;5033265;28;20021;-38
2023/12/26 05:32:28;;;;;;;5.88;1.35;;;8.90;99.90;;;;;;5031516;28;20521;-39
2023/12/26 05:34:55;;;;;;;8.07;0.90;;;8.90;99.90;;;;;;5032413;28;20029;-38
2023/12/26 05:37:21;;;;;;;4.38;0.60;;;8.80;99.90;;;;;;5033225;28;20386;-39
2023/12/26 05:39:47;;;;;;;4.18;0.75;;;8.80;99.90;;;;;;5032367;28;20589;-39
2023/12/26 05:42:13;;;;;;;8.98;1.73;;;8.80;99.90;;;;;;5033257;28;20108;-38
2023/12/26 05:44:39;;;;;;;14.73;1.00;;;8.80;99.90;;;;;;5033589;28;20076;-42
2023/12/26 05:47:05;;;;;;;11.30;1.70;;;8.70;99.90;;;;;;5032496;28;20025;-37
2023/12/26 05:49:31;;;;;;;6.93;1.10;;;8.70;99.90;;;;;;5033050;28;20474;-38
2023/12/26 05:51:56;;;;;;;8.30;1.20;;;8.80;99.90;;;;;;5048367;28;20040;-39
2023/12/26 05:54:22;;;;;;;7.75;2.13;;;8.70;99.90;;;;;;5031877;28;20082;-38
2023/12/26 05:56:48;;;;;;;7.28;1.27;;;8.80;99.90;;;;;;5025326;28;20101;-41
2023/12/26 05:59:13;;;;;;;7.03;1.25;;;8.80;99.90;;;;;;5032971;28;20029;-38
2023/12/26 06:01:47;;;;;;;3.42;0.90;;;8.90;99.90;;;;;;5032741;28;20021;-41
2023/12/26 06:04:13;;;;;;;10.68;1.23;;;8.90;99.90;;;;;;5033131;28;20030;-39
2023/12/26 06:06:38;;;;;;;6.50;0.70;;;8.80;99.90;;;;;;5032426;28;20037;-40
2023/12/26 06:09:04;;;;;;;1.73;0.68;;;8.80;99.90;;;;;;5032414;28;20060;-40
2023/12/26 06:11:30;;;;;;;6.78;0.70;;;8.80;99.90;;;;;;5032643;28;20478;-39
2023/12/26 06:13:55;;;;;;;7.53;1.02;;;8.80;99.90;;;;;;5032704;28;20516;-40
2023/12/26 06:16:21;;;;;;;11.77;0.68;;;8.80;99.90;;;;;;5031826;28;20029;-40
2023/12/26 06:18:47;;;;;;;8.68;0.80;;;8.80;99.90;;;;;;5032694;28;20030;-40
2023/12/26 06:21:12;;;;;;;9.27;0.70;;;8.80;99.90;;;;;;5032251;28;20022;-38
2023/12/26 06:23:38;;;;;;;7.00;0.85;;;8.70;99.90;;;;;;5032724;28;20393;-39
2023/12/26 06:26:04;;;;;;;11.32;1.30;;;8.70;99.90;;;;;;5019771;28;20402;-40
2023/12/26 06:28:29;;;;;;;3.33;0.70;;;8.70;99.90;;;;;;5032106;28;20026;-41
2023/12/26 06:30:55;;;;;;;5.65;0.57;;;8.70;99.90;;;;;;5030924;28;20429;-38
2023/12/26 06:33:21;;;;;;;10.52;1.08;;;8.80;99.90;;;;;;5032123;28;20111;-40
2023/12/26 06:35:47;;;;;;;7.30;1.20;;;8.80;99.90;;;;;;5032163;28;20025;-50
2023/12/26 06:38:12;;;;;;;7.60;0.98;;;8.80;99.90;;;;;;5032060;28;20068;-52
2023/12/26 06:40:39;;;;;;;6.82;1.23;;;8.80;99.90;;;;;;5031961;28;20068;-50
2023/12/26 06:43:06;;;;;;;2.67;0.97;;;8.80;99.90;;;;;;5031037;28;20030;-50
2023/12/26 06:45:32;;;;;;;2.08;0.95;;;8.70;99.90;;;;;;5031539;28;20498;-39
2023/12/26 06:47:57;;;;;;;4.90;1.27;;;8.70;99.90;;;;;;5032226;28;20032;-39
2023/12/26 06:50:23;;;;;;;16.83;1.08;;;8.70;99.90;;;;;;5032059;28;20105;-38
2023/12/26 06:52:49;;;;;;;14.05;1.95;;;8.70;99.90;;;;;;5032166;28;20029;-38
2023/12/26 06:55:14;;;;;;;11.65;1.20;;;8.70;99.90;;;;;;5031782;28;20072;-38
2023/12/26 06:57:40;;;;;;;5.10;1.15;;;8.70;99.90;;;;;;5031815;28;20034;-38
2023/12/26 07:00:06;;;;;;;12.63;1.23;;;8.70;99.90;;;;;;5025254;28;20022;-38
2023/12/26 07:02:32;;;;;;;2.83;0.98;;;8.70;99.90;;;;;;5030812;28;20030;-37
2023/12/26 07:04:58;;;;;;;10.80;1.15;;;8.70;99.90;;;;;;5030519;28;20360;-41
2023/12/26 07:07:23;;;;;;;6.10;0.65;;;8.70;99.90;;;;;;5031221;28;20025;-53
2023/12/26 07:09:49;;;;;;;11.70;1.15;;;8.70;99.90;;;;;;5034875;28;20021;-50
2023/12/26 07:12:15;;;;;;;4.78;1.00;;;8.70;99.90;;;;;;5034487;28;20096;-53
2023/12/26 07:14:40;;;;;;;8.85;1.35;;;8.60;99.90;;;;;;5033197;28;20113;-52
2023/12/26 07:17:06;;;;;;;11.02;1.65;;;8.60;99.90;;;;;;5035605;28;20025;-53
2023/12/26 07:19:32;;;;;;;7.93;1.50;;;8.60;99.90;;;;;;5034353;28;20433;-54
2023/12/26 07:21:57;;;;;;;10.85;1.45;;;8.60;99.90;;;;;;5034312;28;20528;-51
2023/12/26 07:24:26;;;;;;;8.57;1.10;;;8.60;99.90;;;;;;5035472;28;20389;-53
2023/12/26 07:26:52;;;;;;;6.97;1.17;;;8.60;99.90;;;;;;5035560;28;20477;-52
2023/12/26 07:29:17;;;;;;;12.73;1.08;;;8.60;99.90;;;;;;5030888;28;20029;-52
2023/12/26 07:31:43;;;;;;;9.95;0.95;;;8.60;99.90;;;;;;5034118;28;20473;-53
2023/12/26 07:34:09;;;;;;;5.07;0.88;;;8.60;99.90;;;;;;5034165;28;20017;-53
2023/12/26 07:36:35;;;;;;;9.77;1.30;;;8.60;99.90;;;;;;5032124;28;20036;-52
2023/12/26 07:39:01;;;;;;;7.93;1.17;;;8.60;99.90;;;;;;5034022;28;20406;-52
2023/12/26 07:41:27;;;;;;;9.25;1.08;;;8.60;99.90;;;;;;5035049;28;20032;-51
2023/12/26 07:43:54;;;;;;;4.15;0.73;;;8.50;99.90;;;;;;5033783;28;20037;-51
2023/12/26 07:46:20;;;;;;;6.82;1.65;;;8.50;99.90;;;;;;5035030;28;20539;-53
2023/12/26 07:48:47;;;;;;;7.75;1.25;;;8.60;99.90;;;;;;5033461;28;20025;-49
2023/12/26 07:51:12;;;;;;;2.08;0.60;;;8.60;99.90;;;;;;5035245;28;20168;-52
2023/12/26 07:53:38;;;;;;;11.57;1.63;;;8.60;99.90;;;;;;5034171;28;20033;-51
2023/12/26 07:56:04;;;;;;;9.13;1.33;;;8.60;99.90;;;;;;5031921;28;20126;-54
2023/12/26 07:58:30;;;;;;;4.35;1.20;;;8.70;99.90;;;;;;5033080;28;20064;-54
2023/12/26 08:00:56;;;;;;;8.77;1.10;;;8.70;99.90;;;;;;5034858;28;20488;-47
2023/12/26 08:03:22;;;;;;;6.72;1.52;;;8.70;99.90;;;;;;5035687;28;20040;-49
2023/12/26 08:05:48;;;;;;;4.10;1.20;;;8.70;99.90;;;;;;5033611;28;20025;-52
2023/12/26 08:08:13;;;;;;;9.43;0.73;;;8.70;99.90;;;;;;5035720;28;20029;-52
2023/12/26 08:10:42;;;;;;;11.10;2.17;;;8.70;99.90;;;;;;5032814;28;20386;-52
2023/12/26 08:13:08;;;;;;;4.15;0.68;;;8.70;99.90;;;;;;5034227;28;20402;-53
2023/12/26 08:15:33;;;;;;;3.72;0.65;;;8.70;99.90;;;;;;5034118;28;20053;-53
2023/12/26 08:17:59;;;;;;;2.90;1.27;;;8.60;99.90;;;;;;5034550;28;20021;-52
2023/12/26 08:20:25;;;;;;;6.72;0.73;;;8.60;99.90;;;;;;5033427;28;20041;-49
2023/12/26 08:22:50;;;;;;;11.18;1.10;;;8.70;99.90;;;;;;5017962;28;20014;-51
2023/12/26 08:25:16;;;;;;;9.13;0.85;;;8.70;99.90;;;;;;5024685;28;20029;-52
2023/12/26 08:27:42;;;;;;;9.98;1.23;;;8.70;99.90;;;;;;5034710;28;20089;-53
2023/12/26 08:30:08;;;;;;;7.45;1.17;;;8.70;99.90;;;;;;5034663;28;20032;-59
2023/12/26 08:32:34;;;;;;;5.57;1.58;;;8.60;99.90;;;;;;5033222;28;20018;-53
2023/12/26 08:35:00;;;;;;;5.32;0.77;;;8.70;99.90;;;;;;5034493;28;20478;-54
2023/12/26 08:37:27;;;;;;;10.73;2.13;;;8.80;99.90;;;;;;5020639;28;20032;-51
2023/12/26 08:39:53;;;;;;;11.65;1.35;;;8.80;99.90;;;;;;5034569;28;20060;-53
2023/12/26 08:42:19;;;;;;;18.40;1.35;;;8.90;99.90;;;;;;5034752;28;20486;-52
2023/12/26 08:44:44;;;;;;;14.15;1.52;;;8.90;99.90;;;;;;5033695;28;20022;-38
2023/12/26 08:47:10;;;;;;;7.65;1.02;;;8.90;99.90;;;;;;5033947;28;20399;-40
2023/12/26 08:49:36;;;;;;;10.35;1.20;;;9.00;99.90;;;;;;5031926;28;20078;-40
2023/12/26 08:52:02;;;;;;;14.05;2.22;;;8.90;99.90;;;;;;5033499;28;20477;-39
2023/12/26 08:54:28;;;;;;;7.05;0.95;;;8.90;99.90;;;;;;5032136;28;20034;-40
2023/12/26 08:56:53;;;;;;;8.27;0.82;;;8.90;99.90;;;;;;5034534;28;20025;-38
2023/12/26 08:59:22;;;;;;;6.15;1.00;;;8.90;99.90;;;;;;5033301;28;20029;-44
2023/12/26 09:01:47;;;;;;;11.77;1.38;;;8.90;99.90;;;;;;5033411;28;20442;-53
2023/12/26 09:04:13;;;;;;;8.23;1.33;;;8.80;99.90;;;;;;5034229;28;20024;-51
2023/12/26 09:06:39;;;;;;;10.00;1.23;;;8.80;99.90;;;;;;5033378;28;20068;-52
2023/12/26 09:11:49;;;;;;;4.88;1.27;;;8.70;99.90;;;;;;5014458;28;20053;-50
2023/12/26 09:14:14;;;;;;;8.57;1.33;;;8.80;99.90;;;;;;5023552;28;20409;-53
2023/12/26 09:16:40;;;;;;;17.50;1.63;;;8.80;99.90;;;;;;5033729;28;20465;-53
2023/12/26 09:19:06;;;;;;;11.02;1.35;;;8.90;99.90;;;;;;5032900;28;20057;-53
2023/12/26 09:21:32;;;;;;;16.40;2.40;;;8.90;99.90;;;;;;5033941;28;20021;-54
2023/12/26 09:23:57;;;;;;;2.83;0.93;;;9.00;99.90;;;;;;5033408;28;20531;-53
2023/12/26 09:26:24;;;;;;;7.72;2.28;;;9.10;99.90;;;;;;5032592;28;20363;-54
2023/12/26 09:28:50;;;;;;;4.57;0.90;;;9.10;99.90;;;;;;5033256;28;20136;-53
2023/12/26 09:31:16;;;;;;;8.23;1.60;;;9.10;99.90;;;;;;5065175;28;20041;-54
2023/12/26 09:33:42;;;;;;;7.13;1.15;;;9.20;99.90;;;;;;5033107;28;20029;-54
2023/12/26 09:36:07;;;;;;;19.23;2.08;;;9.30;99.90;;;;;;5033168;28;20040;-52
2023/12/26 09:38:33;;;;;;;11.13;1.60;;;9.30;99.90;;;;;;5025622;28;20071;-53
2023/12/26 09:40:59;;;;;;;19.58;1.92;;;9.30;99.90;;;;;;5032679;28;20052;-53
2023/12/26 09:43:25;;;;;;;14.20;1.65;;;9.30;99.90;;;;;;5033109;28;20531;-53
2023/12/26 09:45:51;;;;;;;10.43;1.13;;;9.30;99.90;;;;;;5032717;28;20014;-53
2023/12/26 09:48:17;;;;;;;19.58;1.67;;;9.40;99.90;;;;;;5032912;28;20033;-54
2023/12/26 09:50:43;;;;;;;16.98;2.10;;;9.40;99.90;;;;;;5032979;28;20022;-54
2023/12/26 09:53:09;;;;;;;15.25;1.88;;;9.50;99.90;;;;;;5033123;28;20485;-54
2023/12/26 09:55:35;;;;;;;17.90;1.75;;;9.60;99.90;;;;;;5031080;28;20026;-53
2023/12/26 09:58:02;;;;;;;9.70;1.38;;;9.60;99.90;;;;;;5032671;28;20454;-51
2023/12/26 10:00:28;;;;;;;6.15;0.73;;;9.60;99.90;;;;;;5032805;28;20040;-51
2023/12/26 10:02:54;;;;;;;9.23;1.40;;;9.60;99.90;;;;;;5031230;28;20033;-53
2023/12/26 10:05:20;;;;;;;21.27;2.50;;;9.60;99.90;;;;;;5033261;28;20025;-53
2023/12/26 10:07:46;;;;;;;9.80;1.35;;;9.70;99.90;;;;;;5032869;28;20018;-52
2023/12/26 10:10:12;;;;;;;15.20;1.38;;;9.70;99.90;;;;;;5032408;28;20091;-53
2023/12/26 10:12:39;;;;;;;12.88;1.58;;;9.90;99.90;;;;;;5032533;28;20120;-51
2023/12/26 10:15:05;;;;;;;11.10;1.73;;;9.80;99.90;;;;;;5014790;28;20530;-52
2023/12/26 10:20:17;;;;;;;19.90;3.65;;;9.80;99.90;;;;;;5030859;28;20076;-59
2023/12/26 10:22:43;;;;;;;9.70;1.98;;;9.90;99.90;;;;;;5032264;28;20049;-56
2023/12/26 10:25:10;;;;;;;10.75;0.95;;;9.80;99.90;;;;;;5031230;28;20029;-52
2023/12/26 10:27:37;;;;;;;12.45;2.35;;;10.00;99.90;;;;;;5032570;28;20470;-54
2023/12/26 10:30:03;;;;;;;7.35;0.90;;;10.00;99.90;;;;;;5024255;28;20467;-53
2023/12/26 10:32:30;;;;;;;4.72;1.20;;;10.10;99.90;;;;;;5031670;28;20375;-51
2023/12/26 10:34:56;;;;;;;10.38;1.75;;;10.00;99.90;;;;;;5031703;28;20470;-53
2023/12/26 10:37:22;;;;;;;14.25;1.45;;;10.00;99.90;;;;;;5029408;28;20025;-53
2023/12/26 10:39:52;;;;;;;9.60;1.10;;;10.00;99.90;;;;;;5032055;28;20509;-54
2023/12/26 10:42:18;;;;;;;13.57;2.05;;;10.00;99.90;;;;;;5032184;28;20463;-53
2023/12/26 10:44:57;;;;;;;11.95;1.67;;;10.00;99.90;;;;;;5029279;28;20051;-53
2023/12/26 10:47:23;;;;;;;17.92;1.77;;;10.10;99.90;;;;;;5031896;28;20034;-54
2023/12/26 10:49:55;;;;;;;11.18;0.90;;;10.20;99.90;;;;;;5029939;28;20067;-52
2023/12/26 10:52:22;;;;;;;14.35;1.92;;;10.30;99.90;;;;;;5018902;28;20033;-52
2023/12/26 10:54:50;;;;;;;9.45;1.23;;;10.50;99.90;;;;;;5031999;28;20060;-54
2023/12/26 10:57:17;;;;;;;4.75;1.40;;;10.60;99.90;;;;;;5029296;28;20042;-51
2023/12/26 13:51:45;;;;;;;5.15;1.15;;;9.80;99.90;;;;;;5032959;28;20044;-52
2023/12/26 13:54:12;;;;;;;14.50;1.52;;;9.80;99.90;;;;;;5033746;28;20025;-54
2023/12/26 13:56:38;;;;;;;5.35;0.88;;;9.90;99.90;;;;;;5033211;28;20466;-52
2023/12/26 13:59:03;;;;;;;4.95;0.63;;;9.90;99.90;;;;;;5033350;28;20036;-53
2023/12/26 14:01:29;;;;;;;5.43;0.70;;;9.90;99.90;;;;;;5033296;28;20105;-55
2023/12/26 14:03:56;;;;;;;9.13;0.80;;;9.80;99.90;;;;;;5033196;28;20485;-55
2023/12/26 14:06:22;;;;;;;3.72;0.80;;;9.80;99.90;;;;;;5033321;28;20022;-55
2023/12/26 14:08:49;;;;;;;4.50;0.90;;;9.80;99.90;;;;;;5031831;28;20068;-55
2023/12/26 14:11:15;;;;;;;9.10;0.67;;;9.80;99.90;;;;;;5032376;28;20029;-55
2023/12/26 14:13:41;;;;;;;4.93;1.00;;;9.80;99.90;;;;;;5032697;28;20517;-55
2023/12/26 14:16:07;;;;;;;4.28;0.88;;;9.80;99.90;;;;;;5033411;28;20041;-56
2023/12/26 14:18:32;;;;;;;11.55;1.30;;;9.80;99.90;;;;;;5031276;28;20057;-55
2023/12/26 14:21:00;;;;;;;7.50;1.40;;;9.80;99.90;;;;;;5032957;28;20096;-53
2023/12/26 14:23:26;;;;;;;3.77;0.60;;;9.90;99.90;;;;;;5032168;28;20459;-53
2023/12/26 14:25:51;;;;;;;8.48;0.75;;;9.90;99.90;;;;;;5031521;28;20026;-55
2023/12/26 14:28:17;;;;;;;7.35;0.93;;;9.90;99.90;;;;;;5032462;28;20032;-55
2023/12/26 14:30:43;;;;;;;6.53;1.27;;;9.90;99.90;;;;;;5032912;28;20071;-53
2023/12/26 14:33:08;;;;;;;13.55;0.90;;;9.80;99.90;;;;;;5032820;28;20017;-55
2023/12/26 14:35:34;;;;;;;4.15;0.68;;;9.90;99.90;;;;;;5032519;28;20389;-55
2023/12/26 14:38:00;;;;;;;6.75;0.60;;;9.90;99.90;;;;;;5032457;28;20029;-54
2023/12/26 14:40:25;;;;;;;5.05;0.88;;;9.90;99.90;;;;;;5032825;28;20470;-55
2023/12/26 14:42:51;;;;;;;7.80;1.48;;;9.90;99.90;;;;;;5032432;28;20032;-55
2023/12/26 14:45:17;;;;;;;7.72;1.08;;;9.90;99.90;;;;;;5031393;28;20121;-56
2023/12/26 14:47:43;;;;;;;11.63;1.05;;;9.90;99.90;;;;;;5032283;28;20100;-53
2023/12/26 14:50:09;;;;;;;3.38;0.65;;;9.80;99.90;;;;;;5032712;28;20032;-52
2023/12/26 14:52:35;;;;;;;21.15;1.20;;;9.90;99.90;;;;;;5032414;28;20032;-54
2023/12/26 14:55:00;;;;;;;6.53;1.10;;;9.90;99.90;;;;;;5032642;28;20034;-56
2023/12/26 14:57:26;;;;;;;3.42;1.13;;;9.80;99.90;;;;;;5032292;28;20075;-56
2023/12/26 14:59:51;;;;;;;10.48;1.60;;;9.80;99.90;;;;;;5031906;28;20037;-59
2023/12/26 15:02:17;;;;;;;6.30;1.10;;;9.70;99.90;;;;;;5032228;28;20013;-55
2023/12/26 15:04:43;;;;;;;5.80;0.95;;;9.60;99.90;;;;;;5032566;28;20025;-56
2023/12/26 15:07:08;;;;;;;8.25;1.50;;;9.50;99.90;;;;;;5031562;28;20382;-55
2023/12/26 15:09:34;;;;;;;2.50;0.80;;;9.50;99.90;;;;;;5032263;28;20032;-56
2023/12/26 15:12:00;;;;;;;7.18;1.02;;;9.50;99.90;;;;;;5031920;28;20064;-55
2023/12/26 15:14:26;;;;;;;5.47;1.17;;;9.40;99.90;;;;;;5032380;28;20099;-54
2023/12/26 15:16:51;;;;;;;9.70;1.90;;;9.30;99.90;;;;;;5031975;28;20061;-52
2023/12/26 15:19:17;;;;;;;4.25;0.88;;;9.30;99.90;;;;;;5030987;28;20061;-56
2023/12/26 15:21:43;;;;;;;6.47;1.88;;;9.30;99.90;;;;;;5032403;28;20529;-55
2023/12/26 15:24:13;;;;;;;3.10;0.73;;;9.30;99.90;;;;;;5032097;28;20026;-54
2023/12/26 15:26:39;;;;;;;3.95;0.82;;;9.30;99.90;;;;;;5032410;28;20367;-52
2023/12/26 15:29:05;;;;;;;12.40;1.98;;;9.20;99.90;;;;;;5032381;28;20584;-56
2023/12/26 15:31:32;;;;;;;12.40;1.48;;;9.20;99.90;;;;;;5036098;28;20049;-56
2023/12/26 15:33:58;;;;;;;6.95;1.00;;;9.20;99.90;;;;;;5035182;28;20585;-55
2023/12/26 15:36:25;;;;;;;8.75;1.55;;;9.20;99.90;;;;;;5036170;28;20474;-55
2023/12/26 15:38:52;;;;;;;10.55;1.23;;;9.10;99.90;;;;;;5034361;28;20030;-55
2023/12/26 15:41:19;;;;;;;7.65;1.10;;;9.00;99.90;;;;;;5035703;28;20030;-55